Pagrindinis puslapis
METAR-TAF:

METAR-TAF

Oro uostai :

Noršiopingas, Švedija

platuma: 58-35N, ilguma: 016-09E, Aukštis: 34 m

Dabartinis oras

Ataskaita buvo paskelbta 23 minutes, ne 12:20 UTC
Vėjas 5 kt iš Pietų
Temperatūra 4°C
Drėgmė 93%
Slėgis 1000 hPa
Matomumas 10 km arba daugiau
Mažai debesys ne aukštis 1900 ft
Išsisklaidę debesys ne aukštis 6800 ft
Su prošvaistėmis ne aukštis 10000 ft

METAR: ESSP 161220Z 18005KT 9999 FEW019 SCT068 BKN100 04/03 Q1000 R27/29//95

Laikas: 13:43 (12:43 UTC)

Prognozė

Ataskaita buvo paskelbta 1 valandą ir 13 minutes, ne 11:30 UTC
Prognozė galioja nuo 16 metu 12 UTC su 16 metu 21 UTC
Vėjas 7 kt iš Pietvakarių
Matomumas 10 km arba daugiau
Išsisklaidę debesys ne aukštis 1500 ft
Laikinai
nuo 16 metu 12 UTC su 16 metu 18 UTC
Su prošvaistėmis ne aukštis 1400 ft
lietus

TAF: ESSP 161130Z 1612/1621 22007KT 9999 SCT015 TEMPO 1612/1618 RA BKN014

Orai ataskaitas ir orų prognozės (METAR, TAF).

turimą stotys yra geltonos ir raudonos taškus žemėlapyje.

Perkelti pele per norėdami pamatyti stoties vardą.

Tada spustelėkite, norėdami matyti oro stebėjimo ir prognozės.

Norėdami pakeisti žemėlapį: spustelėkite ant žalios mygtukų su juodo kryžiaus žemyn,; žalią mygtuką su brūkšneliu, jei norite nutolinti; arba žalių rodyklių gretimoms žemėlapius.


METAR-TAF: